createdAt,value
2018-04-18T00:00:39.455Z,10.40
2018-04-18T00:03:07.148Z,10.40
2018-04-18T00:05:34.737Z,10.40
2018-04-18T00:08:02.338Z,10.40
2018-04-18T00:10:29.956Z,10.30
2018-04-18T00:12:57.553Z,10.40
2018-04-18T00:15:25.177Z,10.40
2018-04-18T00:17:52.779Z,10.30
2018-04-18T00:20:20.388Z,10.40
2018-04-18T00:22:48.009Z,10.30
2018-04-18T00:25:15.599Z,10.30
2018-04-18T00:27:43.216Z,10.30
2018-04-18T00:30:10.834Z,10.20
2018-04-18T00:32:38.440Z,10.20
2018-04-18T00:35:06.812Z,10.20
2018-04-18T00:37:35.166Z,10.20
2018-04-18T00:40:02.783Z,10.10
2018-04-18T00:42:30.381Z,10.10
2018-04-18T00:44:57.968Z,10.10
2018-04-18T00:47:26.355Z,10.10
2018-04-18T00:49:54.719Z,10.10
2018-04-18T00:52:22.337Z,10.10
2018-04-18T00:54:49.927Z,10.00
2018-04-18T00:57:17.518Z,10.00
2018-04-18T00:59:45.897Z,9.80
2018-04-18T01:02:14.280Z,9.80
2018-04-18T01:04:42.664Z,9.70
2018-04-18T01:07:10.252Z,9.70
2018-04-18T01:09:43.005Z,9.60
2018-04-18T01:12:11.364Z,9.60
2018-04-18T01:14:39.716Z,9.60
2018-04-18T01:17:07.329Z,9.60
2018-04-18T01:19:34.962Z,9.60
2018-04-18T01:22:03.354Z,9.50
2018-04-18T01:24:31.695Z,9.50
2018-04-18T01:26:59.288Z,9.40
2018-04-18T01:29:27.658Z,9.40
2018-04-18T01:31:55.243Z,9.40
2018-04-18T01:34:22.871Z,9.40
2018-04-18T01:36:50.502Z,9.40
2018-04-18T01:39:18.080Z,9.30
2018-04-18T01:41:45.693Z,9.20
2018-04-18T01:44:13.530Z,9.20
2018-04-18T01:46:41.155Z,9.20
2018-04-18T01:49:20.631Z,9.20
2018-04-18T01:51:49.024Z,9.00
2018-04-18T01:54:17.383Z,9.00
2018-04-18T01:56:44.975Z,9.00
2018-04-18T01:59:12.613Z,9.00
2018-04-18T02:01:40.195Z,8.90
2018-04-18T02:04:07.852Z,8.90
2018-04-18T02:06:36.219Z,8.90
2018-04-18T02:09:04.573Z,8.80
2018-04-18T02:11:32.200Z,8.80
2018-04-18T02:13:59.795Z,8.80
2018-04-18T02:16:27.413Z,8.80
2018-04-18T02:18:54.996Z,8.80
2018-04-18T02:21:22.612Z,8.80
2018-04-18T02:23:50.987Z,8.80
2018-04-18T02:26:19.341Z,8.70
2018-04-18T02:28:46.964Z,8.70
2018-04-18T02:31:14.595Z,8.70
2018-04-18T02:33:42.940Z,8.70
2018-04-18T02:36:10.552Z,8.70
2018-04-18T02:38:39.078Z,8.70
2018-04-18T02:41:06.704Z,8.70
2018-04-18T02:43:34.291Z,8.70
2018-04-18T02:46:01.888Z,8.60
2018-04-18T02:48:30.268Z,8.60
2018-04-18T02:50:58.612Z,8.60
2018-04-18T02:53:26.237Z,8.60
2018-04-18T02:55:53.821Z,8.60
2018-04-18T02:58:21.418Z,8.60
2018-04-18T03:00:49.816Z,8.50
2018-04-18T03:03:18.164Z,8.50
2018-04-18T03:05:45.776Z,8.50
2018-04-18T03:08:13.371Z,8.50
2018-04-18T03:10:40.962Z,8.50
2018-04-18T03:13:09.341Z,8.50
2018-04-18T03:15:37.710Z,8.50
2018-04-18T03:18:05.335Z,8.50
2018-04-18T03:20:32.935Z,8.50
2018-04-18T03:23:00.523Z,8.40
2018-04-18T03:25:28.157Z,8.40
2018-04-18T03:27:55.756Z,8.30
2018-04-18T03:30:26.855Z,8.30
2018-04-18T03:32:54.469Z,8.20
2018-04-18T03:35:32.267Z,8.20
2018-04-18T03:37:59.884Z,8.20
2018-04-18T03:40:27.471Z,8.20
2018-04-18T03:42:55.811Z,8.10
2018-04-18T03:45:23.421Z,8.10
2018-04-18T03:47:51.030Z,8.10
2018-04-18T03:50:18.624Z,8.10
2018-04-18T03:52:47.000Z,8.10
2018-04-18T03:55:15.352Z,8.10
2018-04-18T03:57:42.981Z,8.00
2018-04-18T04:00:11.456Z,8.00
2018-04-18T04:02:39.088Z,8.00
2018-04-18T04:05:07.440Z,8.00
2018-04-18T04:07:35.070Z,8.00
2018-04-18T04:10:02.648Z,8.00
2018-04-18T04:12:30.271Z,8.00
2018-04-18T04:14:57.891Z,8.00
2018-04-18T04:17:37.412Z,8.00
2018-04-18T04:20:16.962Z,8.00
2018-04-18T04:22:56.372Z,7.90
2018-04-18T04:25:25.000Z,7.90
2018-04-18T04:27:52.592Z,7.90
2018-04-18T04:30:20.204Z,7.90
2018-04-18T04:32:47.815Z,7.80
2018-04-18T04:35:15.400Z,7.90
2018-04-18T04:37:43.002Z,7.90
2018-04-18T04:40:11.400Z,7.80
2018-04-18T04:42:39.891Z,7.80
2018-04-18T04:45:07.475Z,7.80
2018-04-18T04:47:35.376Z,7.80
2018-04-18T04:50:03.951Z,7.80
2018-04-18T04:52:31.537Z,7.80
2018-04-18T04:54:59.931Z,7.90
2018-04-18T04:57:28.297Z,7.90
2018-04-18T05:00:06.773Z,7.90
2018-04-18T05:02:34.411Z,7.90
2018-04-18T05:07:59.098Z,7.90
2018-04-18T05:10:27.516Z,8.00
2018-04-18T05:12:55.170Z,8.00
2018-04-18T05:15:22.772Z,8.10
2018-04-18T05:17:50.488Z,8.20
2018-04-18T05:20:20.012Z,8.20
2018-04-18T05:22:47.590Z,8.30
2018-04-18T05:25:15.202Z,8.40
2018-04-18T05:27:42.840Z,8.40
2018-04-18T05:30:11.200Z,8.70
2018-04-18T05:32:38.817Z,8.70
2018-04-18T05:35:06.416Z,8.80
2018-04-18T05:37:34.009Z,8.90
2018-04-18T05:40:02.416Z,9.00
2018-04-18T05:42:30.018Z,9.00
2018-04-18T05:45:03.716Z,9.10
2018-04-18T05:47:31.364Z,9.10
2018-04-18T05:49:58.947Z,9.20
2018-04-18T05:52:26.563Z,9.30
2018-04-18T05:54:54.260Z,9.30
2018-04-18T05:57:21.856Z,9.40
2018-04-18T05:59:50.243Z,9.60
2018-04-18T06:02:39.224Z,9.70
2018-04-18T06:05:06.841Z,9.70
2018-04-18T06:07:34.438Z,9.80
2018-04-18T06:10:02.043Z,10.00
2018-04-18T06:12:29.680Z,10.10
2018-04-18T06:14:57.361Z,10.20
2018-04-18T06:17:24.952Z,10.40
2018-04-18T06:19:52.580Z,10.60
2018-04-18T06:22:20.200Z,10.70
2018-04-18T06:24:47.811Z,10.90
2018-04-18T06:27:15.501Z,11.00
2018-04-18T06:29:43.857Z,11.30
2018-04-18T06:32:11.468Z,11.30
2018-04-18T06:34:39.097Z,11.50
2018-04-18T06:37:06.688Z,11.60
2018-04-18T06:39:35.045Z,11.90
2018-04-18T06:42:02.676Z,11.90
2018-04-18T06:44:30.280Z,12.10
2018-04-18T06:46:58.654Z,12.40
2018-04-18T06:49:27.039Z,12.60
2018-04-18T06:51:55.408Z,12.80
2018-04-18T06:54:23.017Z,12.80
2018-04-18T06:56:52.076Z,13.00
2018-04-18T06:59:27.767Z,13.10
2018-04-18T07:01:55.391Z,13.30
2018-04-18T07:04:23.751Z,13.60
2018-04-18T07:06:51.346Z,13.60
2018-04-18T07:09:18.963Z,13.80
2018-04-18T07:11:46.577Z,13.90
2018-04-18T07:14:14.167Z,14.00
2018-04-18T07:16:41.793Z,14.20
2018-04-18T07:19:09.397Z,14.30
2018-04-18T07:21:37.752Z,14.60
2018-04-18T07:24:05.373Z,14.70
2018-04-18T07:26:33.743Z,15.00
2018-04-18T07:29:02.112Z,15.10
2018-04-18T07:31:29.772Z,15.10
2018-04-18T07:33:57.399Z,15.20
2018-04-18T07:36:25.004Z,15.30
2018-04-18T07:38:52.636Z,15.50
2018-04-18T07:41:20.222Z,15.60
2018-04-18T07:43:47.815Z,15.70
2018-04-18T07:46:15.444Z,15.90
2018-04-18T07:48:43.844Z,16.10
2018-04-18T07:51:12.206Z,16.20
2018-04-18T07:53:58.036Z,16.20
2018-04-18T07:56:25.663Z,16.20
2018-04-18T07:58:54.019Z,16.60
2018-04-18T08:01:21.658Z,16.50
2018-04-18T08:03:49.260Z,16.70
2018-04-18T08:06:17.616Z,17.00
2018-04-18T08:08:45.235Z,16.90
2018-04-18T08:11:12.827Z,17.10
2018-04-18T08:13:40.416Z,17.20
2018-04-18T08:16:08.809Z,17.50
2018-04-18T08:18:37.168Z,17.60
2018-04-18T08:21:05.539Z,17.70
2018-04-18T08:23:33.155Z,17.60
2018-04-18T08:26:00.752Z,17.80
2018-04-18T08:28:28.352Z,17.90
2018-04-18T08:30:56.735Z,18.00
2018-04-18T08:33:24.334Z,18.00
2018-04-18T08:35:51.936Z,18.10
2018-04-18T08:38:20.370Z,18.20
2018-04-18T08:40:48.792Z,18.20
2018-04-18T08:43:16.369Z,18.20
2018-04-18T08:45:44.760Z,18.40
2018-04-18T08:48:12.352Z,18.40
2018-04-18T08:50:39.944Z,18.50
2018-04-18T08:53:07.555Z,18.60
2018-04-18T08:55:35.171Z,18.70
2018-04-18T08:58:02.756Z,18.80
2018-04-18T09:00:31.157Z,19.00
2018-04-18T09:02:58.760Z,18.90
2018-04-18T09:05:26.347Z,19.00
2018-04-18T09:07:54.748Z,19.30
2018-04-18T09:10:28.879Z,19.40
2018-04-18T09:12:56.502Z,19.40
2018-04-18T09:15:24.864Z,19.50
2018-04-18T09:17:52.456Z,19.50
2018-04-18T09:20:20.076Z,19.50
2018-04-18T09:22:47.663Z,19.60
2018-04-18T09:25:16.067Z,19.70
2018-04-18T09:27:43.676Z,19.70
2018-04-18T09:30:11.292Z,19.80
2018-04-18T09:32:38.886Z,20.00
2018-04-18T09:35:06.517Z,20.10
2018-04-18T09:37:34.108Z,20.20
2018-04-18T09:40:01.705Z,20.20
2018-04-18T09:42:45.010Z,20.30
2018-04-18T09:45:12.643Z,20.30
2018-04-18T09:47:40.236Z,20.30
2018-04-18T09:50:07.865Z,20.40
2018-04-18T09:52:35.505Z,20.50
2018-04-18T09:55:03.176Z,20.60
2018-04-18T09:57:30.791Z,20.60
2018-04-18T09:59:58.376Z,20.60
2018-04-18T10:02:29.633Z,20.80
2018-04-18T10:05:02.956Z,20.80
2018-04-18T10:07:30.543Z,20.90
2018-04-18T10:09:58.155Z,20.90
2018-04-18T10:12:25.773Z,21.00
2018-04-18T10:14:53.363Z,21.10
2018-04-18T10:17:21.743Z,21.30
2018-04-18T10:19:49.360Z,21.30
2018-04-18T10:22:17.713Z,21.40
2018-04-18T10:24:45.301Z,21.40
2018-04-18T10:27:12.947Z,21.40
2018-04-18T10:29:40.532Z,21.40
2018-04-18T10:32:08.119Z,21.40
2018-04-18T10:34:36.499Z,21.50
2018-04-18T10:37:04.844Z,21.50
2018-04-18T10:39:32.476Z,21.50
2018-04-18T10:42:00.105Z,21.50
2018-04-18T10:44:28.453Z,21.50
2018-04-18T10:47:02.048Z,21.50
2018-04-18T10:49:29.640Z,21.70
2018-04-18T10:51:58.004Z,21.80
2018-04-18T10:54:26.396Z,21.80
2018-04-18T10:56:54.753Z,21.90
2018-04-18T10:59:22.364Z,21.90
2018-04-18T11:01:49.989Z,21.90
2018-04-18T11:04:18.339Z,22.00
2018-04-18T11:06:46.050Z,22.00
2018-04-18T11:09:13.670Z,22.10
2018-04-18T11:11:41.256Z,22.10
2018-04-18T11:14:09.638Z,22.10
2018-04-18T11:16:38.032Z,22.20
2018-04-18T11:19:05.628Z,22.10
2018-04-18T11:21:33.240Z,22.20
2018-04-18T11:24:01.718Z,22.30
2018-04-18T11:26:30.096Z,22.40
2018-04-18T11:28:58.466Z,22.50
2018-04-18T11:31:30.606Z,22.50
2018-04-18T11:33:59.999Z,22.50
2018-04-18T11:36:27.760Z,22.60
2018-04-18T11:38:55.370Z,22.70
2018-04-18T11:41:23.727Z,22.80
2018-04-18T11:43:51.381Z,22.80
2018-04-18T11:46:19.023Z,22.80
2018-04-18T11:48:46.602Z,22.80
2018-04-18T11:51:14.233Z,22.90
2018-04-18T11:53:41.851Z,23.00
2018-04-18T11:56:10.203Z,23.00
2018-04-18T11:58:38.557Z,23.10
2018-04-18T12:01:09.966Z,23.10
2018-04-18T12:03:38.313Z,23.30
2018-04-18T12:06:05.902Z,23.30
2018-04-18T12:08:34.284Z,23.20
2018-04-18T12:11:02.636Z,23.20
2018-04-18T12:13:30.236Z,23.20
2018-04-18T12:15:57.876Z,23.30
2018-04-18T12:18:26.260Z,23.40
2018-04-18T12:20:54.609Z,23.50
2018-04-18T12:23:22.236Z,23.50
2018-04-18T12:25:49.821Z,23.50
2018-04-18T12:28:17.416Z,23.40
2018-04-18T12:30:45.854Z,23.50
2018-04-18T12:33:14.221Z,23.50
2018-04-18T12:35:41.820Z,23.50
2018-04-18T12:38:09.562Z,23.50
2018-04-18T12:40:37.284Z,23.50
2018-04-18T12:43:15.276Z,23.60
2018-04-18T12:45:43.645Z,23.80
2018-04-18T12:48:11.239Z,23.80
2018-04-18T12:50:55.804Z,23.80
2018-04-18T12:53:23.396Z,23.80
2018-04-18T12:55:58.031Z,23.90
2018-04-18T12:58:25.612Z,23.90
2018-04-18T13:01:01.019Z,23.90
2018-04-18T13:03:28.625Z,24.00
2018-04-18T13:06:07.103Z,24.20
2018-04-18T13:08:34.732Z,24.10
2018-04-18T13:11:02.323Z,24.20
2018-04-18T13:13:29.944Z,24.20
2018-04-18T13:15:57.544Z,24.10
2018-04-18T13:18:26.141Z,24.10
2018-04-18T13:20:53.757Z,24.00
2018-04-18T13:23:29.107Z,24.00
2018-04-18T13:25:56.725Z,24.00
2018-04-18T13:28:25.081Z,24.20
2018-04-18T13:31:04.715Z,24.10
2018-04-18T13:33:32.303Z,24.20
2018-04-18T13:36:03.440Z,24.30
2018-04-18T13:38:31.050Z,24.20
2018-04-18T13:41:00.614Z,24.10
2018-04-18T13:43:28.220Z,24.20
2018-04-18T13:45:56.015Z,24.20
2018-04-18T13:48:23.607Z,24.40
2018-04-18T13:50:51.980Z,24.60
2018-04-18T13:53:23.132Z,24.60
2018-04-18T13:55:51.507Z,24.60
2018-04-18T13:58:19.099Z,24.60
2018-04-18T14:00:46.724Z,24.60
2018-04-18T14:06:08.114Z,24.70
2018-04-18T14:08:35.720Z,24.70
2018-04-18T14:11:03.311Z,24.70
2018-04-18T14:13:30.936Z,24.70
2018-04-18T14:15:58.521Z,24.70
2018-04-18T14:18:26.118Z,24.80
2018-04-18T14:20:53.769Z,24.70
2018-04-18T14:23:21.384Z,24.70
2018-04-18T14:25:48.987Z,24.60
2018-04-18T14:28:16.607Z,24.60
2018-04-18T14:30:44.192Z,24.60
2018-04-18T14:33:12.563Z,24.60
2018-04-18T14:35:40.957Z,24.40
2018-04-18T14:38:09.309Z,24.40
2018-04-18T14:40:37.666Z,24.40
2018-04-18T14:43:05.267Z,24.40
2018-04-18T14:45:33.636Z,24.40
2018-04-18T14:48:01.980Z,24.30
2018-04-18T14:50:29.607Z,24.30
2018-04-18T14:52:57.200Z,24.20
2018-04-18T14:55:24.795Z,24.30
2018-04-18T14:57:53.175Z,24.20
2018-04-18T15:00:21.537Z,24.20
2018-04-18T15:02:56.872Z,24.20
2018-04-18T15:05:27.313Z,24.20
2018-04-18T15:08:02.986Z,24.30
2018-04-18T15:10:30.573Z,24.30
2018-04-18T15:12:58.155Z,24.30
2018-04-18T15:15:25.764Z,24.40
2018-04-18T15:17:54.120Z,24.40
2018-04-18T15:20:21.711Z,24.40
2018-04-18T15:22:49.332Z,24.40
2018-04-18T15:25:16.928Z,24.40
2018-04-18T15:27:45.303Z,24.50
2018-04-18T15:30:12.919Z,24.50
2018-04-18T15:32:40.509Z,24.50
2018-04-18T15:35:08.091Z,24.50
2018-04-18T15:37:36.468Z,24.50
2018-04-18T15:40:04.818Z,24.40
2018-04-18T15:42:32.404Z,24.40
2018-04-18T15:45:01.719Z,24.30
2018-04-18T15:47:29.304Z,24.30
2018-04-18T15:49:56.932Z,24.30
2018-04-18T15:52:24.539Z,24.20
2018-04-18T15:54:52.151Z,24.20
2018-04-18T15:57:20.512Z,24.10
2018-04-18T15:59:48.929Z,24.20
2018-04-18T16:02:16.517Z,24.20
2018-04-18T16:04:44.135Z,24.10
2018-04-18T16:07:12.535Z,24.20
2018-04-18T16:09:40.164Z,24.20
2018-04-18T16:12:08.573Z,24.10
2018-04-18T16:14:36.169Z,24.10
2018-04-18T16:17:03.757Z,24.10
2018-04-18T16:19:32.125Z,24.00
2018-04-18T16:21:59.735Z,24.00
2018-04-18T16:24:27.319Z,24.00
2018-04-18T16:26:54.903Z,24.00
2018-04-18T16:32:20.974Z,23.80
2018-04-18T16:34:49.415Z,23.60
2018-04-18T16:37:17.009Z,23.60
2018-04-18T16:39:45.438Z,23.50
2018-04-18T16:42:13.052Z,23.40
2018-04-18T16:44:41.403Z,23.30
2018-04-18T16:47:08.996Z,23.30
2018-04-18T16:49:37.380Z,23.10
2018-04-18T16:52:06.714Z,23.10
2018-04-18T16:54:34.727Z,23.10
2018-04-18T16:57:02.337Z,23.00
2018-04-18T16:59:29.939Z,22.90
2018-04-18T17:01:58.092Z,22.80
2018-04-18T17:04:25.720Z,22.80
2018-04-18T17:06:53.387Z,22.80
2018-04-18T17:09:21.743Z,22.70
2018-04-18T17:11:49.387Z,22.60
2018-04-18T17:14:16.980Z,22.60
2018-04-18T17:16:44.588Z,22.50
2018-04-18T17:19:12.200Z,22.40
2018-04-18T17:21:39.799Z,22.30
2018-04-18T17:24:07.395Z,22.30
2018-04-18T17:26:35.016Z,22.20
2018-04-18T17:29:02.600Z,22.10
2018-04-18T17:31:30.206Z,21.90
2018-04-18T17:33:57.835Z,21.90
2018-04-18T17:36:26.244Z,21.60
2018-04-18T17:38:53.835Z,21.60
2018-04-18T17:41:21.489Z,21.50
2018-04-18T17:43:49.117Z,21.40
2018-04-18T17:46:17.468Z,21.20
2018-04-18T17:48:45.149Z,21.20
2018-04-18T17:51:12.716Z,21.10
2018-04-18T17:53:41.069Z,21.00
2018-04-18T17:56:08.715Z,21.00
2018-04-18T17:58:36.340Z,20.90
2018-04-18T18:01:03.944Z,20.70
2018-04-18T18:03:31.611Z,20.60
2018-04-18T18:05:59.208Z,20.50
2018-04-18T18:08:27.555Z,20.50
2018-04-18T18:10:55.197Z,20.40
2018-04-18T18:13:22.781Z,20.40
2018-04-18T18:15:50.387Z,20.30
2018-04-18T18:18:18.003Z,20.20
2018-04-18T18:20:45.587Z,20.20
2018-04-18T18:23:13.954Z,20.00
2018-04-18T18:25:42.336Z,19.90
2018-04-18T18:28:10.695Z,19.80
2018-04-18T18:30:38.330Z,19.80
2018-04-18T18:33:05.953Z,19.70
2018-04-18T18:35:36.387Z,19.50
2018-04-18T18:38:03.993Z,19.50
2018-04-18T18:40:31.639Z,19.30
2018-04-18T18:42:59.212Z,19.20
2018-04-18T18:45:26.796Z,19.00
2018-04-18T18:47:54.418Z,18.90
2018-04-18T18:50:22.003Z,18.60
2018-04-18T18:52:50.375Z,18.20
2018-04-18T18:55:17.976Z,18.20
2018-04-18T18:57:46.323Z,17.80
2018-04-18T19:00:14.069Z,17.80
2018-04-18T19:02:42.033Z,17.60
2018-04-18T19:05:09.615Z,17.40
2018-04-18T19:07:37.213Z,17.30
2018-04-18T19:10:05.587Z,17.00
2018-04-18T19:12:33.944Z,16.90
2018-04-18T19:15:01.541Z,16.90
2018-04-18T19:17:29.166Z,16.90
2018-04-18T19:19:56.753Z,16.80
2018-04-18T19:22:25.095Z,17.00
2018-04-18T19:24:52.696Z,17.00
2018-04-18T19:27:21.050Z,17.20
2018-04-18T19:29:48.638Z,17.20
2018-04-18T19:32:16.259Z,17.40
2018-04-18T19:34:43.841Z,17.60
2018-04-18T19:37:12.203Z,17.70
2018-04-18T19:39:39.868Z,17.70
2018-04-18T19:42:07.448Z,17.70
2018-04-18T19:44:35.796Z,17.60
2018-04-18T19:47:03.426Z,17.60
2018-04-18T19:49:31.024Z,17.60
2018-04-18T19:51:58.621Z,17.50
2018-04-18T19:54:27.003Z,17.10
2018-04-18T19:56:55.369Z,16.90
2018-04-18T19:59:23.718Z,16.60
2018-04-18T20:01:51.332Z,16.50
2018-04-18T20:04:18.928Z,16.40
2018-04-18T20:06:46.576Z,16.20
2018-04-18T20:09:14.207Z,16.10
2018-04-18T20:11:41.823Z,15.90
2018-04-18T20:14:09.407Z,15.70
2018-04-18T20:16:37.794Z,15.50
2018-04-18T20:19:06.162Z,15.30
2018-04-18T20:21:33.774Z,15.30
2018-04-18T20:24:01.385Z,15.20
2018-04-18T20:26:28.990Z,15.10
2018-04-18T20:28:56.589Z,15.10
2018-04-18T20:31:24.206Z,15.00
2018-04-18T20:33:51.806Z,15.00
2018-04-18T20:36:19.427Z,15.00
2018-04-18T20:38:47.127Z,15.00
2018-04-18T20:41:14.712Z,15.00
2018-04-18T20:43:42.298Z,14.90
2018-04-18T20:46:09.915Z,14.90
2018-04-18T20:48:37.524Z,14.80
2018-04-18T20:51:05.149Z,14.80
2018-04-18T20:53:32.808Z,14.80
2018-04-18T20:56:00.428Z,14.80
2018-04-18T20:58:28.027Z,14.80
2018-04-18T21:00:55.668Z,14.80
2018-04-18T21:03:23.254Z,14.80
2018-04-18T21:05:50.842Z,14.80
2018-04-18T21:08:19.488Z,14.70
2018-04-18T21:10:47.096Z,14.60
2018-04-18T21:13:14.744Z,14.50
2018-04-18T21:15:43.124Z,14.30
2018-04-18T21:18:11.468Z,14.30
2018-04-18T21:20:39.056Z,14.20
2018-04-18T21:23:06.715Z,14.20
2018-04-18T21:25:35.074Z,14.20
2018-04-18T21:28:02.660Z,14.20
2018-04-18T21:30:31.053Z,14.30
2018-04-18T21:32:59.400Z,14.20
2018-04-18T21:35:26.992Z,14.20
2018-04-18T21:37:55.429Z,14.10
2018-04-18T21:40:22.995Z,14.10
2018-04-18T21:42:50.594Z,14.00
2018-04-18T21:45:18.201Z,13.90
2018-04-18T21:47:45.799Z,13.80
2018-04-18T21:50:14.159Z,13.50
2018-04-18T21:52:41.920Z,13.50
2018-04-18T21:55:09.539Z,13.40
2018-04-18T21:57:37.155Z,13.40
2018-04-18T22:14:38.621Z,14.40
2018-04-18T22:17:07.017Z,14.30
2018-04-18T22:19:34.618Z,14.20
2018-04-18T22:22:02.262Z,14.10
2018-04-18T22:24:29.856Z,13.90
2018-04-18T22:26:57.447Z,13.70
2018-04-18T22:29:25.820Z,13.60
2018-04-18T22:31:54.163Z,13.60
2018-04-18T22:34:21.750Z,13.50
2018-04-18T22:36:50.149Z,13.40
2018-04-18T22:39:17.732Z,13.40
2018-04-18T22:41:45.404Z,13.30
2018-04-18T22:44:13.044Z,13.10
2018-04-18T22:46:40.625Z,13.00
2018-04-18T22:49:08.212Z,12.90
2018-04-18T22:51:35.832Z,12.80
2018-04-18T22:54:03.425Z,12.70
2018-04-18T22:56:31.004Z,12.70
2018-04-18T22:58:58.749Z,12.60
2018-04-18T23:01:26.347Z,12.60
2018-04-18T23:03:54.704Z,12.60
2018-04-18T23:06:22.333Z,12.60
2018-04-18T23:08:49.924Z,12.70
2018-04-18T23:11:17.555Z,12.60
2018-04-18T23:13:45.184Z,12.60
2018-04-18T23:16:13.556Z,12.50
2018-04-18T23:18:41.915Z,12.40
2018-04-18T23:21:09.542Z,12.40
2018-04-18T23:23:37.200Z,12.40
2018-04-18T23:26:04.792Z,12.40
2018-04-18T23:28:32.422Z,12.30
2018-04-18T23:31:00.023Z,12.30
2018-04-18T23:33:27.612Z,12.30
2018-04-18T23:35:55.231Z,12.30
2018-04-18T23:38:22.817Z,12.30
2018-04-18T23:40:51.180Z,12.20
2018-04-18T23:43:18.813Z,12.20
2018-04-18T23:45:46.416Z,12.20
2018-04-18T23:48:14.772Z,12.00
2018-04-18T23:50:42.388Z,12.00
2018-04-18T23:53:09.989Z,12.00
2018-04-18T23:55:37.582Z,12.00
2018-04-18T23:58:05.964Z,11.90
